sensor_id;sensor_type;location;lat;lon;timestamp;P1;durP1;ratioP1;P2;durP2;ratioP2
82230;SDS011;71832;45.138;9.816;2023-12-04T00:01:25;17.73;;;10.52;;
82230;SDS011;71832;45.138;9.816;2023-12-04T00:03:52;19.75;;;10.65;;
82230;SDS011;71832;45.138;9.816;2023-12-04T00:06:20;18.85;;;11.35;;
82230;SDS011;71832;45.138;9.816;2023-12-04T00:08:49;17.92;;;10.82;;
82230;SDS011;71832;45.138;9.816;2023-12-04T00:11:17;18.70;;;10.75;;
82230;SDS011;71832;45.138;9.816;2023-12-04T00:13:46;18.45;;;10.60;;
82230;SDS011;71832;45.138;9.816;2023-12-04T00:16:15;17.23;;;11.05;;
82230;SDS011;71832;45.138;9.816;2023-12-04T00:18:43;19.63;;;11.00;;
82230;SDS011;71832;45.138;9.816;2023-12-04T00:21:12;20.73;;;11.00;;
82230;SDS011;71832;45.138;9.816;2023-12-04T00:23:41;21.30;;;11.38;;
82230;SDS011;71832;45.138;9.816;2023-12-04T00:26:10;20.05;;;11.48;;
82230;SDS011;71832;45.138;9.816;2023-12-04T00:28:39;19.60;;;10.68;;
82230;SDS011;71832;45.138;9.816;2023-12-04T00:31:08;22.30;;;11.70;;
82230;SDS011;71832;45.138;9.816;2023-12-04T00:33:37;19.85;;;11.27;;
82230;SDS011;71832;45.138;9.816;2023-12-04T00:36:06;19.08;;;11.20;;
82230;SDS011;71832;45.138;9.816;2023-12-04T00:38:35;19.25;;;11.23;;
82230;SDS011;71832;45.138;9.816;2023-12-04T00:41:03;23.67;;;11.73;;
82230;SDS011;71832;45.138;9.816;2023-12-04T00:43:32;18.88;;;10.77;;
82230;SDS011;71832;45.138;9.816;2023-12-04T00:46:01;22.73;;;12.30;;
82230;SDS011;71832;45.138;9.816;2023-12-04T00:48:30;20.33;;;12.25;;
82230;SDS011;71832;45.138;9.816;2023-12-04T00:50:58;21.80;;;11.45;;
82230;SDS011;71832;45.138;9.816;2023-12-04T00:53:27;21.02;;;11.63;;
82230;SDS011;71832;45.138;9.816;2023-12-04T00:55:56;22.83;;;12.68;;
82230;SDS011;71832;45.138;9.816;2023-12-04T00:58:25;21.70;;;11.55;;
82230;SDS011;71832;45.138;9.816;2023-12-04T01:00:53;20.00;;;11.27;;
82230;SDS011;71832;45.138;9.816;2023-12-04T01:03:23;21.70;;;10.65;;
82230;SDS011;71832;45.138;9.816;2023-12-04T01:05:52;21.33;;;11.48;;
82230;SDS011;71832;45.138;9.816;2023-12-04T01:08:21;20.25;;;11.10;;
82230;SDS011;71832;45.138;9.816;2023-12-04T01:10:49;20.58;;;11.20;;
82230;SDS011;71832;45.138;9.816;2023-12-04T01:13:18;18.52;;;11.05;;
82230;SDS011;71832;45.138;9.816;2023-12-04T01:15:47;27.98;;;11.77;;
82230;SDS011;71832;45.138;9.816;2023-12-04T01:18:15;20.70;;;11.05;;
82230;SDS011;71832;45.138;9.816;2023-12-04T01:20:43;20.63;;;11.45;;
82230;SDS011;71832;45.138;9.816;2023-12-04T01:23:11;19.45;;;11.63;;
82230;SDS011;71832;45.138;9.816;2023-12-04T01:25:40;19.70;;;11.27;;
82230;SDS011;71832;45.138;9.816;2023-12-04T01:28:10;20.65;;;11.60;;
82230;SDS011;71832;45.138;9.816;2023-12-04T01:30:40;21.13;;;10.90;;
82230;SDS011;71832;45.138;9.816;2023-12-04T01:33:08;20.80;;;11.07;;
82230;SDS011;71832;45.138;9.816;2023-12-04T01:35:37;20.95;;;10.52;;
82230;SDS011;71832;45.138;9.816;2023-12-04T01:38:05;19.90;;;10.73;;
82230;SDS011;71832;45.138;9.816;2023-12-04T01:40:35;21.35;;;10.63;;
82230;SDS011;71832;45.138;9.816;2023-12-04T01:43:03;22.42;;;10.82;;
82230;SDS011;71832;45.138;9.816;2023-12-04T01:45:31;19.67;;;10.98;;
82230;SDS011;71832;45.138;9.816;2023-12-04T01:47:58;22.98;;;11.95;;
82230;SDS011;71832;45.138;9.816;2023-12-04T01:50:28;19.38;;;10.25;;
82230;SDS011;71832;45.138;9.816;2023-12-04T01:52:56;20.48;;;10.77;;
82230;SDS011;71832;45.138;9.816;2023-12-04T01:55:25;20.33;;;11.57;;
82230;SDS011;71832;45.138;9.816;2023-12-04T01:57:53;22.58;;;11.10;;
82230;SDS011;71832;45.138;9.816;2023-12-04T02:00:22;21.80;;;10.27;;
82230;SDS011;71832;45.138;9.816;2023-12-04T02:02:51;20.50;;;10.95;;
82230;SDS011;71832;45.138;9.816;2023-12-04T02:05:20;17.05;;;10.55;;
82230;SDS011;71832;45.138;9.816;2023-12-04T02:07:49;19.60;;;10.40;;
82230;SDS011;71832;45.138;9.816;2023-12-04T02:10:18;21.58;;;11.52;;
82230;SDS011;71832;45.138;9.816;2023-12-04T02:12:47;22.88;;;10.85;;
82230;SDS011;71832;45.138;9.816;2023-12-04T02:15:16;17.60;;;10.77;;
82230;SDS011;71832;45.138;9.816;2023-12-04T02:17:45;22.25;;;10.80;;
82230;SDS011;71832;45.138;9.816;2023-12-04T02:20:14;22.45;;;11.90;;
82230;SDS011;71832;45.138;9.816;2023-12-04T02:22:43;18.95;;;10.85;;
82230;SDS011;71832;45.138;9.816;2023-12-04T02:25:12;19.65;;;10.88;;
82230;SDS011;71832;45.138;9.816;2023-12-04T02:27:44;19.70;;;10.55;;
82230;SDS011;71832;45.138;9.816;2023-12-04T02:30:17;21.30;;;11.45;;
82230;SDS011;71832;45.138;9.816;2023-12-04T02:32:48;21.50;;;10.63;;
82230;SDS011;71832;45.138;9.816;2023-12-04T02:35:21;21.10;;;11.57;;
82230;SDS011;71832;45.138;9.816;2023-12-04T02:37:52;20.65;;;11.25;;
82230;SDS011;71832;45.138;9.816;2023-12-04T02:40:21;21.48;;;11.15;;
82230;SDS011;71832;45.138;9.816;2023-12-04T02:42:50;18.98;;;10.77;;
82230;SDS011;71832;45.138;9.816;2023-12-04T02:45:19;19.70;;;10.90;;
82230;SDS011;71832;45.138;9.816;2023-12-04T02:47:47;17.05;;;10.05;;
82230;SDS011;71832;45.138;9.816;2023-12-04T02:50:16;22.88;;;10.65;;
82230;SDS011;71832;45.138;9.816;2023-12-04T02:52:44;20.00;;;10.77;;
82230;SDS011;71832;45.138;9.816;2023-12-04T02:55:13;22.50;;;10.90;;
82230;SDS011;71832;45.138;9.816;2023-12-04T02:57:42;18.25;;;10.60;;
82230;SDS011;71832;45.138;9.816;2023-12-04T03:00:11;20.90;;;11.30;;
82230;SDS011;71832;45.138;9.816;2023-12-04T03:02:40;21.30;;;11.52;;
82230;SDS011;71832;45.138;9.816;2023-12-04T03:05:08;18.48;;;10.18;;
82230;SDS011;71832;45.138;9.816;2023-12-04T03:07:37;19.08;;;10.80;;
82230;SDS011;71832;45.138;9.816;2023-12-04T03:10:06;19.45;;;10.50;;
82230;SDS011;71832;45.138;9.816;2023-12-04T03:12:35;21.50;;;11.88;;
82230;SDS011;71832;45.138;9.816;2023-12-04T03:15:03;20.67;;;11.43;;
82230;SDS011;71832;45.138;9.816;2023-12-04T03:17:32;20.92;;;11.23;;
82230;SDS011;71832;45.138;9.816;2023-12-04T03:20:01;22.48;;;10.90;;
82230;SDS011;71832;45.138;9.816;2023-12-04T03:22:30;19.30;;;10.05;;
82230;SDS011;71832;45.138;9.816;2023-12-04T03:24:59;20.23;;;10.70;;
82230;SDS011;71832;45.138;9.816;2023-12-04T03:27:28;19.60;;;10.55;;
82230;SDS011;71832;45.138;9.816;2023-12-04T03:29:56;21.17;;;11.50;;
82230;SDS011;71832;45.138;9.816;2023-12-04T03:32:24;19.92;;;10.68;;
82230;SDS011;71832;45.138;9.816;2023-12-04T03:34:53;17.40;;;10.02;;
82230;SDS011;71832;45.138;9.816;2023-12-04T03:37:22;21.73;;;11.88;;
82230;SDS011;71832;45.138;9.816;2023-12-04T03:39:50;20.58;;;10.85;;
82230;SDS011;71832;45.138;9.816;2023-12-04T03:42:18;17.42;;;9.63;;
82230;SDS011;71832;45.138;9.816;2023-12-04T03:44:47;19.63;;;10.30;;
82230;SDS011;71832;45.138;9.816;2023-12-04T03:47:16;20.42;;;10.60;;
82230;SDS011;71832;45.138;9.816;2023-12-04T03:49:45;17.83;;;10.25;;
82230;SDS011;71832;45.138;9.816;2023-12-04T03:52:14;19.20;;;10.20;;
82230;SDS011;71832;45.138;9.816;2023-12-04T03:54:42;16.02;;;9.40;;
82230;SDS011;71832;45.138;9.816;2023-12-04T03:57:11;21.58;;;10.48;;
82230;SDS011;71832;45.138;9.816;2023-12-04T03:59:40;24.90;;;12.05;;
82230;SDS011;71832;45.138;9.816;2023-12-04T04:02:08;22.25;;;11.50;;
82230;SDS011;71832;45.138;9.816;2023-12-04T04:04:37;19.15;;;10.77;;
82230;SDS011;71832;45.138;9.816;2023-12-04T04:07:06;21.35;;;11.60;;
82230;SDS011;71832;45.138;9.816;2023-12-04T04:09:34;20.02;;;10.82;;
82230;SDS011;71832;45.138;9.816;2023-12-04T04:12:03;19.40;;;11.27;;
82230;SDS011;71832;45.138;9.816;2023-12-04T04:14:32;19.15;;;11.07;;
82230;SDS011;71832;45.138;9.816;2023-12-04T04:17:01;20.35;;;10.25;;
82230;SDS011;71832;45.138;9.816;2023-12-04T04:19:30;17.33;;;9.93;;
82230;SDS011;71832;45.138;9.816;2023-12-04T04:21:58;19.33;;;10.40;;
82230;SDS011;71832;45.138;9.816;2023-12-04T04:24:27;20.35;;;9.85;;
82230;SDS011;71832;45.138;9.816;2023-12-04T04:26:55;19.33;;;10.45;;
82230;SDS011;71832;45.138;9.816;2023-12-04T04:29:24;19.05;;;10.48;;
82230;SDS011;71832;45.138;9.816;2023-12-04T04:31:53;18.95;;;10.07;;
82230;SDS011;71832;45.138;9.816;2023-12-04T04:34:21;21.80;;;10.07;;
82230;SDS011;71832;45.138;9.816;2023-12-04T04:36:50;18.13;;;9.40;;
82230;SDS011;71832;45.138;9.816;2023-12-04T04:39:17;18.17;;;10.00;;
82230;SDS011;71832;45.138;9.816;2023-12-04T04:41:45;16.98;;;10.15;;
82230;SDS011;71832;45.138;9.816;2023-12-04T04:44:12;18.05;;;10.32;;
82230;SDS011;71832;45.138;9.816;2023-12-04T04:46:40;18.17;;;9.25;;
82230;SDS011;71832;45.138;9.816;2023-12-04T04:49:07;21.58;;;10.70;;
82230;SDS011;71832;45.138;9.816;2023-12-04T04:51:35;19.30;;;10.38;;
82230;SDS011;71832;45.138;9.816;2023-12-04T04:54:02;19.55;;;10.45;;
82230;SDS011;71832;45.138;9.816;2023-12-04T04:56:31;20.52;;;10.75;;
82230;SDS011;71832;45.138;9.816;2023-12-04T04:58:59;19.98;;;10.52;;
82230;SDS011;71832;45.138;9.816;2023-12-04T05:01:26;25.73;;;10.13;;
82230;SDS011;71832;45.138;9.816;2023-12-04T05:03:54;18.73;;;10.52;;
82230;SDS011;71832;45.138;9.816;2023-12-04T05:06:21;17.17;;;9.75;;
82230;SDS011;71832;45.138;9.816;2023-12-04T05:08:49;19.23;;;9.75;;
82230;SDS011;71832;45.138;9.816;2023-12-04T05:11:18;20.63;;;9.80;;
82230;SDS011;71832;45.138;9.816;2023-12-04T05:13:46;19.30;;;10.25;;
82230;SDS011;71832;45.138;9.816;2023-12-04T05:16:14;20.02;;;10.85;;
82230;SDS011;71832;45.138;9.816;2023-12-04T05:18:42;17.73;;;10.25;;
82230;SDS011;71832;45.138;9.816;2023-12-04T05:21:10;19.40;;;10.73;;
82230;SDS011;71832;45.138;9.816;2023-12-04T05:23:38;18.45;;;10.48;;
82230;SDS011;71832;45.138;9.816;2023-12-04T05:26:06;17.92;;;9.70;;
82230;SDS011;71832;45.138;9.816;2023-12-04T05:28:34;18.95;;;9.95;;
82230;SDS011;71832;45.138;9.816;2023-12-04T05:31:03;17.63;;;10.65;;
82230;SDS011;71832;45.138;9.816;2023-12-04T05:33:32;17.05;;;9.73;;
82230;SDS011;71832;45.138;9.816;2023-12-04T05:36:01;19.40;;;10.20;;
82230;SDS011;71832;45.138;9.816;2023-12-04T05:38:29;19.52;;;10.80;;
82230;SDS011;71832;45.138;9.816;2023-12-04T05:40:58;18.60;;;10.40;;
82230;SDS011;71832;45.138;9.816;2023-12-04T05:43:26;20.77;;;11.00;;
82230;SDS011;71832;45.138;9.816;2023-12-04T05:45:54;21.80;;;12.70;;
82230;SDS011;71832;45.138;9.816;2023-12-04T05:48:22;20.38;;;11.60;;
82230;SDS011;71832;45.138;9.816;2023-12-04T05:50:50;19.65;;;11.35;;
82230;SDS011;71832;45.138;9.816;2023-12-04T05:53:19;19.75;;;11.20;;
82230;SDS011;71832;45.138;9.816;2023-12-04T05:55:48;16.88;;;9.27;;
82230;SDS011;71832;45.138;9.816;2023-12-04T05:58:16;17.75;;;9.25;;
82230;SDS011;71832;45.138;9.816;2023-12-04T06:00:45;16.83;;;9.23;;
82230;SDS011;71832;45.138;9.816;2023-12-04T06:03:13;19.42;;;10.63;;
82230;SDS011;71832;45.138;9.816;2023-12-04T06:05:42;18.83;;;9.98;;
82230;SDS011;71832;45.138;9.816;2023-12-04T06:08:11;19.40;;;10.60;;
82230;SDS011;71832;45.138;9.816;2023-12-04T06:10:39;21.80;;;11.18;;
82230;SDS011;71832;45.138;9.816;2023-12-04T06:13:08;21.80;;;11.00;;
82230;SDS011;71832;45.138;9.816;2023-12-04T06:15:35;20.05;;;10.93;;
82230;SDS011;71832;45.138;9.816;2023-12-04T06:18:04;19.65;;;11.05;;
82230;SDS011;71832;45.138;9.816;2023-12-04T06:20:32;18.52;;;10.68;;
82230;SDS011;71832;45.138;9.816;2023-12-04T06:23:01;22.10;;;12.00;;
82230;SDS011;71832;45.138;9.816;2023-12-04T06:25:30;21.55;;;11.10;;
82230;SDS011;71832;45.138;9.816;2023-12-04T06:27:59;21.70;;;10.32;;
82230;SDS011;71832;45.138;9.816;2023-12-04T06:30:27;19.08;;;10.43;;
82230;SDS011;71832;45.138;9.816;2023-12-04T06:32:56;20.05;;;10.20;;
82230;SDS011;71832;45.138;9.816;2023-12-04T06:35:24;21.38;;;10.48;;
82230;SDS011;71832;45.138;9.816;2023-12-04T06:37:53;18.27;;;9.68;;
82230;SDS011;71832;45.138;9.816;2023-12-04T06:40:23;20.75;;;9.73;;
82230;SDS011;71832;45.138;9.816;2023-12-04T06:42:51;18.50;;;9.75;;
82230;SDS011;71832;45.138;9.816;2023-12-04T06:45:19;21.50;;;11.07;;
82230;SDS011;71832;45.138;9.816;2023-12-04T06:47:47;20.92;;;11.55;;
82230;SDS011;71832;45.138;9.816;2023-12-04T06:50:17;27.42;;;14.20;;
82230;SDS011;71832;45.138;9.816;2023-12-04T06:52:45;27.63;;;13.82;;
82230;SDS011;71832;45.138;9.816;2023-12-04T06:55:12;22.92;;;10.27;;
82230;SDS011;71832;45.138;9.816;2023-12-04T06:57:40;26.75;;;13.88;;
82230;SDS011;71832;45.138;9.816;2023-12-04T07:00:08;26.65;;;13.35;;
82230;SDS011;71832;45.138;9.816;2023-12-04T07:02:38;20.15;;;11.00;;
82230;SDS011;71832;45.138;9.816;2023-12-04T07:05:05;24.08;;;11.13;;
82230;SDS011;71832;45.138;9.816;2023-12-04T07:07:33;21.58;;;10.07;;
82230;SDS011;71832;45.138;9.816;2023-12-04T07:10:01;18.85;;;10.55;;
82230;SDS011;71832;45.138;9.816;2023-12-04T07:12:29;18.20;;;9.88;;
82230;SDS011;71832;45.138;9.816;2023-12-04T07:14:57;16.60;;;9.88;;
82230;SDS011;71832;45.138;9.816;2023-12-04T07:17:25;17.60;;;9.18;;
82230;SDS011;71832;45.138;9.816;2023-12-04T07:19:53;19.60;;;10.50;;
82230;SDS011;71832;45.138;9.816;2023-12-04T07:22:22;20.73;;;10.13;;
82230;SDS011;71832;45.138;9.816;2023-12-04T07:24:51;19.08;;;11.05;;
82230;SDS011;71832;45.138;9.816;2023-12-04T07:27:20;21.50;;;10.35;;
82230;SDS011;71832;45.138;9.816;2023-12-04T07:29:47;18.73;;;10.50;;
82230;SDS011;71832;45.138;9.816;2023-12-04T07:32:15;15.82;;;9.32;;
82230;SDS011;71832;45.138;9.816;2023-12-04T07:34:44;20.35;;;10.85;;
82230;SDS011;71832;45.138;9.816;2023-12-04T07:37:11;18.13;;;10.48;;
82230;SDS011;71832;45.138;9.816;2023-12-04T07:39:39;20.13;;;10.13;;
82230;SDS011;71832;45.138;9.816;2023-12-04T07:42:08;17.40;;;10.25;;
82230;SDS011;71832;45.138;9.816;2023-12-04T07:44:37;19.80;;;10.48;;
82230;SDS011;71832;45.138;9.816;2023-12-04T07:47:05;16.50;;;9.60;;
82230;SDS011;71832;45.138;9.816;2023-12-04T07:49:34;18.00;;;9.93;;
82230;SDS011;71832;45.138;9.816;2023-12-04T07:52:03;17.75;;;9.38;;
82230;SDS011;71832;45.138;9.816;2023-12-04T07:54:32;22.83;;;12.15;;
82230;SDS011;71832;45.138;9.816;2023-12-04T07:57:00;19.20;;;11.77;;
82230;SDS011;71832;45.138;9.816;2023-12-04T07:59:29;22.45;;;12.20;;
82230;SDS011;71832;45.138;9.816;2023-12-04T08:01:58;25.02;;;12.15;;
82230;SDS011;71832;45.138;9.816;2023-12-04T08:04:27;18.88;;;10.85;;
82230;SDS011;71832;45.138;9.816;2023-12-04T08:06:55;31.50;;;16.67;;
82230;SDS011;71832;45.138;9.816;2023-12-04T08:09:24;26.30;;;15.85;;
82230;SDS011;71832;45.138;9.816;2023-12-04T08:11:53;24.90;;;12.30;;
82230;SDS011;71832;45.138;9.816;2023-12-04T08:14:21;19.98;;;11.25;;
82230;SDS011;71832;45.138;9.816;2023-12-04T08:16:50;19.65;;;10.48;;
82230;SDS011;71832;45.138;9.816;2023-12-04T08:19:17;22.95;;;10.45;;
82230;SDS011;71832;45.138;9.816;2023-12-04T08:21:46;19.77;;;10.68;;
82230;SDS011;71832;45.138;9.816;2023-12-04T08:24:16;19.08;;;10.07;;
82230;SDS011;71832;45.138;9.816;2023-12-04T08:26:44;20.60;;;10.73;;
82230;SDS011;71832;45.138;9.816;2023-12-04T08:29:12;19.95;;;11.27;;
82230;SDS011;71832;45.138;9.816;2023-12-04T08:31:39;21.85;;;11.27;;
82230;SDS011;71832;45.138;9.816;2023-12-04T08:34:08;20.63;;;11.35;;
82230;SDS011;71832;45.138;9.816;2023-12-04T08:36:38;20.70;;;10.77;;
82230;SDS011;71832;45.138;9.816;2023-12-04T08:39:05;19.25;;;10.32;;
82230;SDS011;71832;45.138;9.816;2023-12-04T08:41:33;19.42;;;10.82;;
82230;SDS011;71832;45.138;9.816;2023-12-04T08:44:00;19.80;;;10.50;;
82230;SDS011;71832;45.138;9.816;2023-12-04T08:46:27;21.60;;;10.27;;
82230;SDS011;71832;45.138;9.816;2023-12-04T08:48:55;21.98;;;11.60;;
82230;SDS011;71832;45.138;9.816;2023-12-04T08:51:22;20.98;;;10.48;;
82230;SDS011;71832;45.138;9.816;2023-12-04T08:53:50;19.45;;;10.80;;
82230;SDS011;71832;45.138;9.816;2023-12-04T08:56:18;22.20;;;10.93;;
82230;SDS011;71832;45.138;9.816;2023-12-04T08:58:45;22.95;;;11.45;;
82230;SDS011;71832;45.138;9.816;2023-12-04T09:01:13;20.85;;;11.48;;
82230;SDS011;71832;45.138;9.816;2023-12-04T09:03:40;20.00;;;11.50;;
82230;SDS011;71832;45.138;9.816;2023-12-04T09:06:08;18.48;;;9.98;;
82230;SDS011;71832;45.138;9.816;2023-12-04T09:08:35;21.27;;;10.98;;
82230;SDS011;71832;45.138;9.816;2023-12-04T09:11:03;18.55;;;10.07;;
82230;SDS011;71832;45.138;9.816;2023-12-04T09:13:30;20.25;;;11.02;;
82230;SDS011;71832;45.138;9.816;2023-12-04T09:15:59;21.30;;;11.35;;
82230;SDS011;71832;45.138;9.816;2023-12-04T09:18:27;19.05;;;9.85;;
82230;SDS011;71832;45.138;9.816;2023-12-04T09:20:55;20.00;;;10.52;;
82230;SDS011;71832;45.138;9.816;2023-12-04T09:23:22;20.40;;;10.82;;
82230;SDS011;71832;45.138;9.816;2023-12-04T09:25:49;20.05;;;10.95;;
82230;SDS011;71832;45.138;9.816;2023-12-04T09:28:17;22.40;;;11.35;;
82230;SDS011;71832;45.138;9.816;2023-12-04T09:30:45;19.58;;;11.02;;
82230;SDS011;71832;45.138;9.816;2023-12-04T09:33:13;23.83;;;11.88;;
82230;SDS011;71832;45.138;9.816;2023-12-04T09:35:40;20.58;;;11.45;;
82230;SDS011;71832;45.138;9.816;2023-12-04T09:38:08;19.65;;;11.40;;
82230;SDS011;71832;45.138;9.816;2023-12-04T09:40:36;22.52;;;11.32;;
82230;SDS011;71832;45.138;9.816;2023-12-04T09:43:05;21.80;;;12.45;;
82230;SDS011;71832;45.138;9.816;2023-12-04T09:45:32;16.35;;;10.57;;
82230;SDS011;71832;45.138;9.816;2023-12-04T09:48:00;22.65;;;11.48;;
82230;SDS011;71832;45.138;9.816;2023-12-04T09:50:28;21.10;;;11.02;;
82230;SDS011;71832;45.138;9.816;2023-12-04T09:52:56;22.13;;;11.07;;
82230;SDS011;71832;45.138;9.816;2023-12-04T09:55:29;24.58;;;10.85;;
82230;SDS011;71832;45.138;9.816;2023-12-04T09:57:57;22.08;;;13.23;;
82230;SDS011;71832;45.138;9.816;2023-12-04T10:00:26;22.67;;;12.52;;
82230;SDS011;71832;45.138;9.816;2023-12-04T10:02:55;20.20;;;11.23;;
82230;SDS011;71832;45.138;9.816;2023-12-04T10:05:25;22.42;;;11.75;;
82230;SDS011;71832;45.138;9.816;2023-12-04T10:07:54;19.35;;;10.10;;
82230;SDS011;71832;45.138;9.816;2023-12-04T10:10:23;20.20;;;11.30;;
82230;SDS011;71832;45.138;9.816;2023-12-04T10:12:51;20.38;;;11.52;;
82230;SDS011;71832;45.138;9.816;2023-12-04T10:15:21;26.38;;;12.25;;
82230;SDS011;71832;45.138;9.816;2023-12-04T10:17:50;23.77;;;11.80;;
82230;SDS011;71832;45.138;9.816;2023-12-04T10:20:20;26.20;;;11.60;;
82230;SDS011;71832;45.138;9.816;2023-12-04T10:22:54;26.05;;;12.50;;
82230;SDS011;71832;45.138;9.816;2023-12-04T10:25:27;24.63;;;12.07;;
82230;SDS011;71832;45.138;9.816;2023-12-04T10:28:16;25.17;;;12.93;;
82230;SDS011;71832;45.138;9.816;2023-12-04T10:30:45;20.33;;;11.48;;
82230;SDS011;71832;45.138;9.816;2023-12-04T10:33:13;23.17;;;11.48;;
82230;SDS011;71832;45.138;9.816;2023-12-04T10:35:42;23.00;;;12.15;;
82230;SDS011;71832;45.138;9.816;2023-12-04T10:38:11;20.98;;;11.48;;
82230;SDS011;71832;45.138;9.816;2023-12-04T10:40:40;24.20;;;11.60;;
82230;SDS011;71832;45.138;9.816;2023-12-04T10:45:38;26.77;;;12.13;;
82230;SDS011;71832;45.138;9.816;2023-12-04T10:48:08;20.05;;;12.05;;
82230;SDS011;71832;45.138;9.816;2023-12-04T10:50:37;26.48;;;11.80;;
82230;SDS011;71832;45.138;9.816;2023-12-04T10:53:08;21.38;;;11.85;;
82230;SDS011;71832;45.138;9.816;2023-12-04T10:55:39;26.85;;;12.15;;
82230;SDS011;71832;45.138;9.816;2023-12-04T10:58:09;22.80;;;12.43;;
82230;SDS011;71832;45.138;9.816;2023-12-04T11:00:40;24.20;;;12.93;;
82230;SDS011;71832;45.138;9.816;2023-12-04T11:03:18;28.27;;;13.05;;
82230;SDS011;71832;45.138;9.816;2023-12-04T11:05:55;30.17;;;13.25;;
82230;SDS011;71832;45.138;9.816;2023-12-04T11:08:28;30.48;;;12.23;;
82230;SDS011;71832;45.138;9.816;2023-12-04T11:10:59;23.23;;;11.77;;
82230;SDS011;71832;45.138;9.816;2023-12-04T11:13:30;20.92;;;11.55;;
82230;SDS011;71832;45.138;9.816;2023-12-04T11:16:02;24.50;;;12.27;;
82230;SDS011;71832;45.138;9.816;2023-12-04T11:18:36;24.38;;;12.07;;
82230;SDS011;71832;45.138;9.816;2023-12-04T11:21:08;26.90;;;12.13;;
82230;SDS011;71832;45.138;9.816;2023-12-04T11:23:37;23.30;;;12.02;;
82230;SDS011;71832;45.138;9.816;2023-12-04T11:26:06;22.33;;;11.40;;
82230;SDS011;71832;45.138;9.816;2023-12-04T11:28:36;22.70;;;11.05;;
82230;SDS011;71832;45.138;9.816;2023-12-04T11:31:06;25.48;;;12.25;;
82230;SDS011;71832;45.138;9.816;2023-12-04T11:33:35;22.77;;;12.18;;
82230;SDS011;71832;45.138;9.816;2023-12-04T11:36:06;25.38;;;13.20;;
82230;SDS011;71832;45.138;9.816;2023-12-04T11:38:38;26.55;;;12.93;;
82230;SDS011;71832;45.138;9.816;2023-12-04T11:41:16;28.27;;;13.85;;
82230;SDS011;71832;45.138;9.816;2023-12-04T11:43:46;23.48;;;11.75;;
82230;SDS011;71832;45.138;9.816;2023-12-04T11:46:24;24.90;;;11.85;;
82230;SDS011;71832;45.138;9.816;2023-12-04T11:48:54;19.30;;;11.55;;
82230;SDS011;71832;45.138;9.816;2023-12-04T11:54:13;23.60;;;12.60;;
82230;SDS011;71832;45.138;9.816;2023-12-04T11:57:25;28.80;;;12.98;;
82230;SDS011;71832;45.138;9.816;2023-12-04T11:59:38;23.10;;;11.68;;
82230;SDS011;71832;45.138;9.816;2023-12-04T12:02:08;23.50;;;12.32;;
82230;SDS011;71832;45.138;9.816;2023-12-04T12:04:38;22.80;;;12.65;;
82230;SDS011;71832;45.138;9.816;2023-12-04T12:07:06;25.40;;;12.45;;
82230;SDS011;71832;45.138;9.816;2023-12-04T12:09:36;22.08;;;11.27;;
82230;SDS011;71832;45.138;9.816;2023-12-04T12:12:05;19.67;;;11.35;;
82230;SDS011;71832;45.138;9.816;2023-12-04T12:14:33;23.05;;;11.77;;
82230;SDS011;71832;45.138;9.816;2023-12-04T12:17:00;24.45;;;12.30;;
82230;SDS011;71832;45.138;9.816;2023-12-04T12:19:28;26.30;;;12.82;;
82230;SDS011;71832;45.138;9.816;2023-12-04T12:21:55;24.80;;;11.82;;
82230;SDS011;71832;45.138;9.816;2023-12-04T12:24:23;21.55;;;12.07;;
82230;SDS011;71832;45.138;9.816;2023-12-04T12:26:53;24.20;;;12.00;;
82230;SDS011;71832;45.138;9.816;2023-12-04T12:29:22;25.08;;;13.18;;
82230;SDS011;71832;45.138;9.816;2023-12-04T12:31:50;23.58;;;11.40;;
82230;SDS011;71832;45.138;9.816;2023-12-04T12:34:18;24.35;;;11.73;;
82230;SDS011;71832;45.138;9.816;2023-12-04T12:36:46;26.92;;;12.40;;
82230;SDS011;71832;45.138;9.816;2023-12-04T12:39:15;20.58;;;11.60;;
82230;SDS011;71832;45.138;9.816;2023-12-04T12:41:47;21.92;;;11.30;;
82230;SDS011;71832;45.138;9.816;2023-12-04T12:44:16;20.13;;;11.70;;
82230;SDS011;71832;45.138;9.816;2023-12-04T12:46:47;22.40;;;12.50;;
82230;SDS011;71832;45.138;9.816;2023-12-04T12:49:19;24.92;;;12.30;;
82230;SDS011;71832;45.138;9.816;2023-12-04T12:51:47;23.95;;;12.50;;
82230;SDS011;71832;45.138;9.816;2023-12-04T12:54:16;20.65;;;12.30;;
82230;SDS011;71832;45.138;9.816;2023-12-04T12:56:50;21.63;;;11.95;;
82230;SDS011;71832;45.138;9.816;2023-12-04T12:59:19;22.63;;;13.00;;
82230;SDS011;71832;45.138;9.816;2023-12-04T13:01:47;22.45;;;12.45;;
82230;SDS011;71832;45.138;9.816;2023-12-04T13:04:15;21.35;;;11.57;;
82230;SDS011;71832;45.138;9.816;2023-12-04T13:06:43;23.73;;;12.00;;
82230;SDS011;71832;45.138;9.816;2023-12-04T13:09:11;22.23;;;11.93;;
82230;SDS011;71832;45.138;9.816;2023-12-04T13:11:45;25.15;;;12.27;;
82230;SDS011;71832;45.138;9.816;2023-12-04T13:14:14;24.88;;;12.93;;
82230;SDS011;71832;45.138;9.816;2023-12-04T13:16:43;24.92;;;13.02;;
82230;SDS011;71832;45.138;9.816;2023-12-04T13:19:11;25.60;;;12.80;;
82230;SDS011;71832;45.138;9.816;2023-12-04T13:21:39;22.77;;;12.70;;
82230;SDS011;71832;45.138;9.816;2023-12-04T13:24:07;23.10;;;11.82;;
82230;SDS011;71832;45.138;9.816;2023-12-04T13:26:36;24.10;;;12.48;;
82230;SDS011;71832;45.138;9.816;2023-12-04T13:29:05;20.92;;;11.73;;
82230;SDS011;71832;45.138;9.816;2023-12-04T13:31:33;22.60;;;13.23;;
82230;SDS011;71832;45.138;9.816;2023-12-04T13:34:01;25.23;;;12.82;;
82230;SDS011;71832;45.138;9.816;2023-12-04T13:36:33;24.67;;;12.90;;
82230;SDS011;71832;45.138;9.816;2023-12-04T13:39:02;23.25;;;12.68;;
82230;SDS011;71832;45.138;9.816;2023-12-04T13:41:30;23.10;;;13.15;;
82230;SDS011;71832;45.138;9.816;2023-12-04T13:44:17;22.13;;;11.60;;
82230;SDS011;71832;45.138;9.816;2023-12-04T13:46:45;22.00;;;11.95;;
82230;SDS011;71832;45.138;9.816;2023-12-04T13:49:15;19.20;;;10.70;;
82230;SDS011;71832;45.138;9.816;2023-12-04T13:51:45;21.25;;;10.88;;
82230;SDS011;71832;45.138;9.816;2023-12-04T13:54:15;23.27;;;11.90;;
82230;SDS011;71832;45.138;9.816;2023-12-04T13:56:52;22.35;;;11.98;;
82230;SDS011;71832;45.138;9.816;2023-12-04T13:59:20;21.70;;;11.50;;
82230;SDS011;71832;45.138;9.816;2023-12-04T14:01:48;23.00;;;11.55;;
82230;SDS011;71832;45.138;9.816;2023-12-04T14:04:17;23.30;;;11.57;;
82230;SDS011;71832;45.138;9.816;2023-12-04T14:06:45;24.10;;;11.88;;
82230;SDS011;71832;45.138;9.816;2023-12-04T14:09:14;19.40;;;11.07;;
82230;SDS011;71832;45.138;9.816;2023-12-04T14:11:42;20.83;;;11.38;;
82230;SDS011;71832;45.138;9.816;2023-12-04T14:14:11;19.02;;;10.68;;
82230;SDS011;71832;45.138;9.816;2023-12-04T14:16:40;22.92;;;11.55;;
82230;SDS011;71832;45.138;9.816;2023-12-04T14:19:08;21.52;;;11.38;;
82230;SDS011;71832;45.138;9.816;2023-12-04T14:21:35;21.13;;;11.73;;
82230;SDS011;71832;45.138;9.816;2023-12-04T14:24:03;23.23;;;11.63;;
82230;SDS011;71832;45.138;9.816;2023-12-04T14:26:31;23.40;;;11.43;;
82230;SDS011;71832;45.138;9.816;2023-12-04T14:28:59;23.17;;;11.32;;
82230;SDS011;71832;45.138;9.816;2023-12-04T14:31:29;22.70;;;12.10;;
82230;SDS011;71832;45.138;9.816;2023-12-04T14:33:57;22.52;;;12.05;;
82230;SDS011;71832;45.138;9.816;2023-12-04T14:36:26;19.90;;;11.38;;
82230;SDS011;71832;45.138;9.816;2023-12-04T14:38:57;20.73;;;11.50;;